الصفحة الرئيسية
METAR-TAF:

METAR-TAF

مطار :

كارلسباد, نيومكسيكو, الولايات المتحدة

دائرة عرض: 32-20-15N, خط طول: 104-15-48W, ارتفاع: 1004 متر

مراقبة الطقس الحالي

تاريخ ووقت الإصدار 55 دقيقة قبل الساعة 20:53UTC
ريح 6 عقدة من الشرق/الجنوب الشرقي
درجة الحرارة 16°درجة مئوية
الرطوبة 27%
ضغط 1022 hPa
الرؤية: 16.1 كم
سماء صافية

METAR: KCNM 182053Z AUTO 11006KT 10SM CLR 16/M03 A3019 RMK AO2 SLP200 T01561033 58030

زمن: 15:48 (21:48 UTC)

توقعات

تاريخ ووقت الإصدار 4ساعات و 28 دقيقة قبل الساعة 17:20UTC
التوقعات صالحة من18 الساعة 18 UTC إلى 19 الساعة 18 UTC
ريح 8 عقدة من الشرق/الجنوب الشرقي
الرؤية: 10 كم
غيوم متفرقة على ارتفاع 20000 قدم
من 19 الساعة 0300 UTC
ريح 6 عقدة من الجنوب
الرؤية: 10 كم
غيوم قليلة على ارتفاع 20000 قدم

TAF: KCNM 181720Z 1818/1918 12008KT P6SM SCT200 FM190300 19006KT P6SM FEW200

أرصاد الطقس والتوقعات من أكثر من 4000 مطار (تقارير الطقس للمطار METAR والتنبؤ بالطقس بالمطارTAF).

المحطات المتاحة هي النقط الصفراء والحمراء على الخريطة.

حرك المؤشر فوق النقطة لمعرفة اسم المحطة.

ثم انقر لمعرفة أرصاد وتوقعات الطقس.

لتغيير الخارطة: اضغط على الأزرار الخضراء مع رمز الصليب الأسود للتكبير. على الزر الأخضر مع شرطة للتصغير، أو على الأسهم الخضراء للخرائط المجاورة.


METAR-TAF: